Tucson, AZ (85730)

6:51 PM MST on November 24, 2014 (GMT -0700)
Harthstone Hills | Change Station
CLOSE
Current Station
Personal Weather Station
Location: Tucson, AZ
Elevation: 2795 ft
Nearby Weather Stations
Active Advisory: Freeze Warning Active Notice: Record Report

Elev 2795 ft 32.19 °N, 110.79 °W | Updated 3 minutes ago

Clear
Clear
53.2 °F
Feels Like 53.2 °F
N
5.3
Wind Variable Wind from WSW

Today
High -- | Low -- °F
--% Chance of Precip.
Yesterday
High -- | Low -- °F
Precip. -- in
7:00 AM 5:19 PM
Waxing Crescent, 8% visible
Pressure 30.19 in
Visibility 10.0 miles
Clouds Clear
Dew Point 8 °F
Humidity 16%
Rainfall 0.00 in
Snow Depth Not available.
UV 0 out of 12
Pollen 2.80 out of 12
Air Quality Not available.
Flu Activity Not available.
METAR KDMA 250058Z AUTO 30008KT 10SM CLR 13/M16 A3021 RMK AO2 SLP223 T01271159 $

More Conditions Fewer Conditions

Pressure 30.19 in
Visibility 10.0 miles
Clouds Clear
Dew Point 8 °F
Humidity 16%
Rainfall 0.00 in
Snow Depth Not available.
UV 0 out of 12
Pollen 2.80 out of 12
Air Quality Not available.
Flu Activity Not available.
METAR KDMA 250058Z AUTO 30008KT 10SM CLR 13/M16 A3021 RMK AO2 SLP223 T01271159 $

More Conditions Fewer Conditions

10-Day Weather Forecast

Almanac

Astronomy

Nov. 24, 2014 Rise Set
Actual Time
Civil Twilight
Nautical Twilight
Astronomical Twilight
Moon
Length of Visible Light
Length of Day
Tomorrow will be .
, % of the Moon is Illuminated

Today's Extremes

State Highs State Lows

Community

WunderPhotos

Upload Photos

1,773,459 photos uploaded!

WunderBlogs® & News

Nearby

Air Quality

  Air Quality AQ Index Pollutant
Not available.

Snow Depth

Station Depth Elevation

Earthquake Activity

City Distance Mag. Time & Date
Minimum magnitude displayed is 2.5.

Coastal Water Temperatures

Place Temperature

Nearby Weather Stations